sensor_id;sensor_type;location;lat;lon;timestamp;P1;durP1;ratioP1;P2;durP2;ratioP2
22320;SDS011;11328;53.928;18.522;2023-03-01T00:01:39;16.02;;;6.80;;
22320;SDS011;11328;53.928;18.522;2023-03-01T00:04:07;16.67;;;6.55;;
22320;SDS011;11328;53.928;18.522;2023-03-01T00:06:34;15.52;;;6.05;;
22320;SDS011;11328;53.928;18.522;2023-03-01T00:09:01;15.30;;;6.57;;
22320;SDS011;11328;53.928;18.522;2023-03-01T00:11:30;15.23;;;5.88;;
22320;SDS011;11328;53.928;18.522;2023-03-01T00:14:01;15.13;;;6.88;;
22320;SDS011;11328;53.928;18.522;2023-03-01T00:16:32;13.70;;;6.40;;
22320;SDS011;11328;53.928;18.522;2023-03-01T00:19:07;15.00;;;6.45;;
22320;SDS011;11328;53.928;18.522;2023-03-01T00:21:39;15.20;;;6.00;;
22320;SDS011;11328;53.928;18.522;2023-03-01T00:24:06;13.52;;;6.20;;
22320;SDS011;11328;53.928;18.522;2023-03-01T00:26:34;13.90;;;5.78;;
22320;SDS011;11328;53.928;18.522;2023-03-01T00:29:02;12.27;;;5.93;;
22320;SDS011;11328;53.928;18.522;2023-03-01T00:31:31;15.45;;;6.95;;
22320;SDS011;11328;53.928;18.522;2023-03-01T00:34:01;15.75;;;6.40;;
22320;SDS011;11328;53.928;18.522;2023-03-01T00:36:32;13.52;;;6.18;;
22320;SDS011;11328;53.928;18.522;2023-03-01T00:39:03;14.27;;;5.78;;
22320;SDS011;11328;53.928;18.522;2023-03-01T00:41:33;12.75;;;5.50;;
22320;SDS011;11328;53.928;18.522;2023-03-01T00:44:01;13.15;;;5.50;;
22320;SDS011;11328;53.928;18.522;2023-03-01T00:46:28;13.45;;;5.22;;
22320;SDS011;11328;53.928;18.522;2023-03-01T00:48:57;11.93;;;5.38;;
22320;SDS011;11328;53.928;18.522;2023-03-01T00:51:25;14.45;;;5.80;;
22320;SDS011;11328;53.928;18.522;2023-03-01T00:53:55;13.23;;;5.57;;
22320;SDS011;11328;53.928;18.522;2023-03-01T00:56:25;12.85;;;5.00;;
22320;SDS011;11328;53.928;18.522;2023-03-01T00:58:53;13.95;;;5.13;;
22320;SDS011;11328;53.928;18.522;2023-03-01T01:01:22;14.40;;;5.10;;
22320;SDS011;11328;53.928;18.522;2023-03-01T01:04:00;14.05;;;5.43;;
22320;SDS011;11328;53.928;18.522;2023-03-01T01:06:33;18.27;;;5.90;;
22320;SDS011;11328;53.928;18.522;2023-03-01T01:09:03;13.60;;;5.30;;
22320;SDS011;11328;53.928;18.522;2023-03-01T01:11:33;14.25;;;5.40;;
22320;SDS011;11328;53.928;18.522;2023-03-01T01:14:05;12.38;;;5.15;;
22320;SDS011;11328;53.928;18.522;2023-03-01T01:16:32;12.18;;;5.40;;
22320;SDS011;11328;53.928;18.522;2023-03-01T01:19:00;11.25;;;4.90;;
22320;SDS011;11328;53.928;18.522;2023-03-01T01:21:27;14.07;;;5.53;;
22320;SDS011;11328;53.928;18.522;2023-03-01T01:23:55;16.67;;;5.40;;
22320;SDS011;11328;53.928;18.522;2023-03-01T01:26:33;14.23;;;5.80;;
22320;SDS011;11328;53.928;18.522;2023-03-01T01:29:02;11.45;;;4.95;;
22320;SDS011;11328;53.928;18.522;2023-03-01T01:31:32;11.98;;;5.25;;
22320;SDS011;11328;53.928;18.522;2023-03-01T01:34:02;12.98;;;5.28;;
22320;SDS011;11328;53.928;18.522;2023-03-01T01:36:34;11.10;;;5.23;;
22320;SDS011;11328;53.928;18.522;2023-03-01T01:39:02;14.05;;;4.88;;
22320;SDS011;11328;53.928;18.522;2023-03-01T01:41:30;14.52;;;5.10;;
22320;SDS011;11328;53.928;18.522;2023-03-01T01:44:17;13.80;;;5.20;;
22320;SDS011;11328;53.928;18.522;2023-03-01T01:57:47;12.93;;;5.22;;
22320;SDS011;11328;53.928;18.522;2023-03-01T02:02:55;11.35;;;4.90;;
22320;SDS011;11328;53.928;18.522;2023-03-01T02:08:23;11.25;;;4.88;;
22320;SDS011;11328;53.928;18.522;2023-03-01T02:10:56;12.32;;;5.05;;
22320;SDS011;11328;53.928;18.522;2023-03-01T02:13:26;15.00;;;5.00;;
22320;SDS011;11328;53.928;18.522;2023-03-01T02:15:54;11.90;;;5.53;;
22320;SDS011;11328;53.928;18.522;2023-03-01T02:18:21;14.27;;;5.35;;
22320;SDS011;11328;53.928;18.522;2023-03-01T02:23:27;13.27;;;5.72;;
22320;SDS011;11328;53.928;18.522;2023-03-01T02:25:58;12.85;;;5.80;;
22320;SDS011;11328;53.928;18.522;2023-03-01T02:28:48;14.13;;;5.15;;
22320;SDS011;11328;53.928;18.522;2023-03-01T02:31:17;16.30;;;5.97;;
22320;SDS011;11328;53.928;18.522;2023-03-01T02:34:06;13.38;;;5.72;;
22320;SDS011;11328;53.928;18.522;2023-03-01T02:36:41;16.45;;;6.00;;
22320;SDS011;11328;53.928;18.522;2023-03-01T02:39:22;13.52;;;5.30;;
22320;SDS011;11328;53.928;18.522;2023-03-01T02:41:59;13.50;;;5.68;;
22320;SDS011;11328;53.928;18.522;2023-03-01T02:44:30;13.45;;;5.57;;
22320;SDS011;11328;53.928;18.522;2023-03-01T02:46:58;13.15;;;5.65;;
22320;SDS011;11328;53.928;18.522;2023-03-01T02:49:30;13.27;;;6.15;;
22320;SDS011;11328;53.928;18.522;2023-03-01T02:52:04;12.23;;;5.75;;
22320;SDS011;11328;53.928;18.522;2023-03-01T02:57:39;12.32;;;5.40;;
22320;SDS011;11328;53.928;18.522;2023-03-01T03:00:12;13.90;;;6.00;;
22320;SDS011;11328;53.928;18.522;2023-03-01T03:02:52;13.05;;;5.75;;
22320;SDS011;11328;53.928;18.522;2023-03-01T03:05:22;15.13;;;6.15;;
22320;SDS011;11328;53.928;18.522;2023-03-01T03:07:53;15.45;;;5.65;;
22320;SDS011;11328;53.928;18.522;2023-03-01T03:10:26;12.80;;;5.70;;
22320;SDS011;11328;53.928;18.522;2023-03-01T03:12:59;14.15;;;5.80;;
22320;SDS011;11328;53.928;18.522;2023-03-01T03:15:36;12.93;;;6.00;;
22320;SDS011;11328;53.928;18.522;2023-03-01T03:18:06;13.98;;;5.72;;
22320;SDS011;11328;53.928;18.522;2023-03-01T03:20:45;12.27;;;5.43;;
22320;SDS011;11328;53.928;18.522;2023-03-01T03:23:12;13.55;;;6.00;;
22320;SDS011;11328;53.928;18.522;2023-03-01T03:25:40;13.75;;;6.10;;
22320;SDS011;11328;53.928;18.522;2023-03-01T03:28:07;16.40;;;6.20;;
22320;SDS011;11328;53.928;18.522;2023-03-01T03:30:38;15.05;;;6.85;;
22320;SDS011;11328;53.928;18.522;2023-03-01T03:33:07;16.35;;;6.80;;
22320;SDS011;11328;53.928;18.522;2023-03-01T03:35:46;15.13;;;6.20;;
22320;SDS011;11328;53.928;18.522;2023-03-01T03:38:16;15.27;;;6.45;;
22320;SDS011;11328;53.928;18.522;2023-03-01T03:40:49;20.60;;;6.45;;
22320;SDS011;11328;53.928;18.522;2023-03-01T03:43:27;13.85;;;6.50;;
22320;SDS011;11328;53.928;18.522;2023-03-01T03:45:56;14.57;;;6.68;;
22320;SDS011;11328;53.928;18.522;2023-03-01T03:48:24;13.82;;;5.80;;
22320;SDS011;11328;53.928;18.522;2023-03-01T03:50:52;13.35;;;6.13;;
22320;SDS011;11328;53.928;18.522;2023-03-01T03:53:23;13.82;;;7.05;;
22320;SDS011;11328;53.928;18.522;2023-03-01T03:55:52;16.08;;;6.53;;
22320;SDS011;11328;53.928;18.522;2023-03-01T03:58:21;15.55;;;6.47;;
22320;SDS011;11328;53.928;18.522;2023-03-01T04:00:52;14.60;;;6.53;;
22320;SDS011;11328;53.928;18.522;2023-03-01T04:03:25;14.07;;;6.47;;
22320;SDS011;11328;53.928;18.522;2023-03-01T04:05:54;18.88;;;6.68;;
22320;SDS011;11328;53.928;18.522;2023-03-01T04:08:25;17.63;;;7.28;;
22320;SDS011;11328;53.928;18.522;2023-03-01T04:10:58;20.05;;;7.40;;
22320;SDS011;11328;53.928;18.522;2023-03-01T04:13:47;20.95;;;7.72;;
22320;SDS011;11328;53.928;18.522;2023-03-01T04:16:15;17.98;;;7.32;;
22320;SDS011;11328;53.928;18.522;2023-03-01T04:18:42;17.38;;;7.90;;
22320;SDS011;11328;53.928;18.522;2023-03-01T04:21:10;16.15;;;7.43;;
22320;SDS011;11328;53.928;18.522;2023-03-01T04:23:38;18.27;;;7.30;;
22320;SDS011;11328;53.928;18.522;2023-03-01T04:26:07;19.88;;;8.55;;
22320;SDS011;11328;53.928;18.522;2023-03-01T04:28:35;17.48;;;7.85;;
22320;SDS011;11328;53.928;18.522;2023-03-01T04:31:07;17.23;;;8.47;;
22320;SDS011;11328;53.928;18.522;2023-03-01T04:33:43;19.00;;;8.65;;
22320;SDS011;11328;53.928;18.522;2023-03-01T04:36:18;19.33;;;8.52;;
22320;SDS011;11328;53.928;18.522;2023-03-01T04:38:48;18.20;;;8.77;;
22320;SDS011;11328;53.928;18.522;2023-03-01T04:41:17;17.45;;;8.93;;
22320;SDS011;11328;53.928;18.522;2023-03-01T04:43:46;18.42;;;9.10;;
22320;SDS011;11328;53.928;18.522;2023-03-01T04:46:15;24.63;;;10.20;;
22320;SDS011;11328;53.928;18.522;2023-03-01T04:48:48;23.85;;;11.45;;
22320;SDS011;11328;53.928;18.522;2023-03-01T04:51:15;23.88;;;12.45;;
22320;SDS011;11328;53.928;18.522;2023-03-01T04:53:44;22.85;;;9.68;;
22320;SDS011;11328;53.928;18.522;2023-03-01T04:56:12;22.55;;;9.57;;
22320;SDS011;11328;53.928;18.522;2023-03-01T04:58:40;26.50;;;10.57;;
22320;SDS011;11328;53.928;18.522;2023-03-01T05:01:08;25.30;;;11.73;;
22320;SDS011;11328;53.928;18.522;2023-03-01T05:03:46;27.08;;;11.23;;
22320;SDS011;11328;53.928;18.522;2023-03-01T05:06:16;21.85;;;10.80;;
22320;SDS011;11328;53.928;18.522;2023-03-01T05:08:44;26.50;;;10.95;;
22320;SDS011;11328;53.928;18.522;2023-03-01T05:11:11;22.13;;;10.48;;
22320;SDS011;11328;53.928;18.522;2023-03-01T05:13:39;25.38;;;10.85;;
22320;SDS011;11328;53.928;18.522;2023-03-01T05:16:07;22.05;;;11.10;;
22320;SDS011;11328;53.928;18.522;2023-03-01T05:18:38;24.60;;;11.68;;
22320;SDS011;11328;53.928;18.522;2023-03-01T05:21:16;23.25;;;11.05;;
22320;SDS011;11328;53.928;18.522;2023-03-01T05:23:43;29.27;;;12.75;;
22320;SDS011;11328;53.928;18.522;2023-03-01T05:26:13;28.40;;;13.27;;
22320;SDS011;11328;53.928;18.522;2023-03-01T05:28:53;33.58;;;14.02;;
22320;SDS011;11328;53.928;18.522;2023-03-01T05:31:25;30.73;;;14.47;;
22320;SDS011;11328;53.928;18.522;2023-03-01T05:33:54;37.75;;;16.23;;
22320;SDS011;11328;53.928;18.522;2023-03-01T05:50:06;41.55;;;20.50;;
22320;SDS011;11328;53.928;18.522;2023-03-01T05:52:33;43.20;;;18.45;;
22320;SDS011;11328;53.928;18.522;2023-03-01T05:55:00;49.85;;;18.83;;
22320;SDS011;11328;53.928;18.522;2023-03-01T05:57:30;45.63;;;19.67;;
22320;SDS011;11328;53.928;18.522;2023-03-01T05:59:57;38.75;;;17.42;;
22320;SDS011;11328;53.928;18.522;2023-03-01T06:02:24;41.58;;;16.98;;
22320;SDS011;11328;53.928;18.522;2023-03-01T06:04:51;41.30;;;16.92;;
22320;SDS011;11328;53.928;18.522;2023-03-01T06:07:18;37.67;;;16.67;;
22320;SDS011;11328;53.928;18.522;2023-03-01T06:09:45;35.88;;;16.15;;
22320;SDS011;11328;53.928;18.522;2023-03-01T06:12:12;36.55;;;16.75;;
22320;SDS011;11328;53.928;18.522;2023-03-01T06:14:39;43.25;;;15.88;;
22320;SDS011;11328;53.928;18.522;2023-03-01T06:17:06;42.97;;;17.45;;
22320;SDS011;11328;53.928;18.522;2023-03-01T06:19:32;41.83;;;16.45;;
22320;SDS011;11328;53.928;18.522;2023-03-01T06:21:59;36.03;;;16.20;;
22320;SDS011;11328;53.928;18.522;2023-03-01T06:24:26;41.35;;;15.95;;
22320;SDS011;11328;53.928;18.522;2023-03-01T06:26:54;41.75;;;17.45;;
22320;SDS011;11328;53.928;18.522;2023-03-01T06:29:22;39.40;;;16.08;;
22320;SDS011;11328;53.928;18.522;2023-03-01T06:31:49;43.47;;;17.70;;
22320;SDS011;11328;53.928;18.522;2023-03-01T06:34:16;36.40;;;16.60;;
22320;SDS011;11328;53.928;18.522;2023-03-01T06:36:47;47.00;;;18.35;;
22320;SDS011;11328;53.928;18.522;2023-03-01T06:39:14;39.95;;;17.58;;
22320;SDS011;11328;53.928;18.522;2023-03-01T06:41:43;48.95;;;18.25;;
22320;SDS011;11328;53.928;18.522;2023-03-01T06:44:10;51.80;;;18.73;;
22320;SDS011;11328;53.928;18.522;2023-03-01T06:46:38;44.88;;;18.10;;
22320;SDS011;11328;53.928;18.522;2023-03-01T06:49:06;43.83;;;17.17;;
22320;SDS011;11328;53.928;18.522;2023-03-01T06:51:36;54.42;;;18.95;;
22320;SDS011;11328;53.928;18.522;2023-03-01T06:54:03;55.80;;;17.75;;
22320;SDS011;11328;53.928;18.522;2023-03-01T06:56:31;46.63;;;19.25;;
22320;SDS011;11328;53.928;18.522;2023-03-01T06:58:59;53.55;;;20.00;;
22320;SDS011;11328;53.928;18.522;2023-03-01T07:01:26;48.30;;;19.40;;
22320;SDS011;11328;53.928;18.522;2023-03-01T07:03:53;54.13;;;19.35;;
22320;SDS011;11328;53.928;18.522;2023-03-01T07:06:20;68.88;;;19.25;;
22320;SDS011;11328;53.928;18.522;2023-03-01T07:08:48;67.43;;;23.55;;
22320;SDS011;11328;53.928;18.522;2023-03-01T07:11:15;54.92;;;18.65;;
22320;SDS011;11328;53.928;18.522;2023-03-01T07:13:42;60.60;;;17.95;;
22320;SDS011;11328;53.928;18.522;2023-03-01T07:16:09;60.28;;;18.70;;
22320;SDS011;11328;53.928;18.522;2023-03-01T07:18:39;58.88;;;18.27;;
22320;SDS011;11328;53.928;18.522;2023-03-01T07:21:07;44.75;;;17.70;;
22320;SDS011;11328;53.928;18.522;2023-03-01T07:23:37;51.35;;;17.17;;
22320;SDS011;11328;53.928;18.522;2023-03-01T07:26:04;50.35;;;17.55;;
22320;SDS011;11328;53.928;18.522;2023-03-01T07:28:31;46.75;;;17.85;;
22320;SDS011;11328;53.928;18.522;2023-03-01T07:31:02;46.38;;;18.38;;
22320;SDS011;11328;53.928;18.522;2023-03-01T07:33:29;44.60;;;17.73;;
22320;SDS011;11328;53.928;18.522;2023-03-01T07:35:57;56.13;;;18.40;;
22320;SDS011;11328;53.928;18.522;2023-03-01T07:38:27;45.58;;;17.42;;
22320;SDS011;11328;53.928;18.522;2023-03-01T07:40:59;51.03;;;20.40;;
22320;SDS011;11328;53.928;18.522;2023-03-01T07:43:29;50.15;;;19.10;;
22320;SDS011;11328;53.928;18.522;2023-03-01T07:46:00;54.83;;;19.67;;
22320;SDS011;11328;53.928;18.522;2023-03-01T07:48:29;49.72;;;19.83;;
22320;SDS011;11328;53.928;18.522;2023-03-01T07:50:58;53.17;;;19.40;;
22320;SDS011;11328;53.928;18.522;2023-03-01T07:53:27;64.22;;;20.67;;
22320;SDS011;11328;53.928;18.522;2023-03-01T07:56:08;55.17;;;20.80;;
22320;SDS011;11328;53.928;18.522;2023-03-01T07:58:39;55.63;;;21.05;;
22320;SDS011;11328;53.928;18.522;2023-03-01T08:01:10;52.55;;;21.33;;
22320;SDS011;11328;53.928;18.522;2023-03-01T08:03:41;56.83;;;21.00;;
22320;SDS011;11328;53.928;18.522;2023-03-01T08:06:10;56.53;;;21.25;;
22320;SDS011;11328;53.928;18.522;2023-03-01T08:08:38;55.58;;;21.55;;
22320;SDS011;11328;53.928;18.522;2023-03-01T08:11:06;51.95;;;21.20;;
22320;SDS011;11328;53.928;18.522;2023-03-01T08:13:40;56.25;;;22.27;;
22320;SDS011;11328;53.928;18.522;2023-03-01T08:16:11;53.65;;;21.92;;
22320;SDS011;11328;53.928;18.522;2023-03-01T08:18:41;54.13;;;21.58;;
22320;SDS011;11328;53.928;18.522;2023-03-01T08:21:13;53.33;;;21.90;;
22320;SDS011;11328;53.928;18.522;2023-03-01T08:23:42;52.67;;;22.05;;
22320;SDS011;11328;53.928;18.522;2023-03-01T08:26:14;52.97;;;22.10;;
22320;SDS011;11328;53.928;18.522;2023-03-01T08:28:45;54.47;;;22.05;;
22320;SDS011;11328;53.928;18.522;2023-03-01T08:31:21;52.35;;;21.92;;
22320;SDS011;11328;53.928;18.522;2023-03-01T08:33:56;54.75;;;21.85;;
22320;SDS011;11328;53.928;18.522;2023-03-01T08:36:27;56.10;;;22.40;;
22320;SDS011;11328;53.928;18.522;2023-03-01T08:39:07;53.00;;;22.00;;
22320;SDS011;11328;53.928;18.522;2023-03-01T08:41:36;55.90;;;22.75;;
22320;SDS011;11328;53.928;18.522;2023-03-01T08:44:04;50.78;;;23.30;;
22320;SDS011;11328;53.928;18.522;2023-03-01T08:46:41;50.90;;;22.98;;
22320;SDS011;11328;53.928;18.522;2023-03-01T08:49:16;52.08;;;24.08;;
22320;SDS011;11328;53.928;18.522;2023-03-01T08:51:45;52.30;;;22.92;;
22320;SDS011;11328;53.928;18.522;2023-03-01T08:54:15;45.33;;;22.55;;
22320;SDS011;11328;53.928;18.522;2023-03-01T08:56:45;43.38;;;21.70;;
22320;SDS011;11328;53.928;18.522;2023-03-01T08:59:13;45.05;;;22.05;;
22320;SDS011;11328;53.928;18.522;2023-03-01T09:01:43;44.08;;;21.40;;
22320;SDS011;11328;53.928;18.522;2023-03-01T09:04:10;46.03;;;21.90;;
22320;SDS011;11328;53.928;18.522;2023-03-01T09:06:38;45.60;;;21.38;;
22320;SDS011;11328;53.928;18.522;2023-03-01T09:09:06;45.20;;;21.30;;
22320;SDS011;11328;53.928;18.522;2023-03-01T09:11:41;40.65;;;20.65;;
22320;SDS011;11328;53.928;18.522;2023-03-01T09:14:10;38.80;;;20.77;;
22320;SDS011;11328;53.928;18.522;2023-03-01T09:16:38;39.45;;;20.73;;
22320;SDS011;11328;53.928;18.522;2023-03-01T09:19:06;41.08;;;20.98;;
22320;SDS011;11328;53.928;18.522;2023-03-01T09:21:33;44.55;;;21.63;;
22320;SDS011;11328;53.928;18.522;2023-03-01T09:24:15;40.90;;;21.25;;
22320;SDS011;11328;53.928;18.522;2023-03-01T09:26:42;39.65;;;21.23;;
22320;SDS011;11328;53.928;18.522;2023-03-01T09:29:13;44.20;;;23.75;;
22320;SDS011;11328;53.928;18.522;2023-03-01T09:31:42;36.80;;;21.60;;
22320;SDS011;11328;53.928;18.522;2023-03-01T09:34:09;36.67;;;20.45;;
22320;SDS011;11328;53.928;18.522;2023-03-01T09:36:36;38.38;;;20.85;;
22320;SDS011;11328;53.928;18.522;2023-03-01T09:39:04;34.53;;;19.45;;
22320;SDS011;11328;53.928;18.522;2023-03-01T09:41:44;31.85;;;17.63;;
22320;SDS011;11328;53.928;18.522;2023-03-01T09:44:27;30.50;;;17.58;;
22320;SDS011;11328;53.928;18.522;2023-03-01T09:47:05;27.50;;;16.15;;
22320;SDS011;11328;53.928;18.522;2023-03-01T09:50:32;28.23;;;16.73;;
22320;SDS011;11328;53.928;18.522;2023-03-01T09:52:40;29.45;;;17.45;;
22320;SDS011;11328;53.928;18.522;2023-03-01T09:55:16;28.73;;;16.25;;
22320;SDS011;11328;53.928;18.522;2023-03-01T09:57:58;28.45;;;16.73;;
22320;SDS011;11328;53.928;18.522;2023-03-01T10:00:42;28.00;;;16.48;;
22320;SDS011;11328;53.928;18.522;2023-03-01T10:03:16;30.83;;;17.80;;
22320;SDS011;11328;53.928;18.522;2023-03-01T10:05:57;30.55;;;17.00;;
22320;SDS011;11328;53.928;18.522;2023-03-01T10:09:15;30.65;;;17.15;;
22320;SDS011;11328;53.928;18.522;2023-03-01T10:11:51;29.80;;;17.60;;
22320;SDS011;11328;53.928;18.522;2023-03-01T10:20:15;29.50;;;17.98;;
22320;SDS011;11328;53.928;18.522;2023-03-01T10:22:53;31.20;;;17.02;;
22320;SDS011;11328;53.928;18.522;2023-03-01T10:25:31;26.13;;;16.17;;
22320;SDS011;11328;53.928;18.522;2023-03-01T10:28:11;27.58;;;17.10;;
22320;SDS011;11328;53.928;18.522;2023-03-01T10:30:50;24.15;;;15.23;;
22320;SDS011;11328;53.928;18.522;2023-03-01T10:33:37;34.05;;;19.92;;
22320;SDS011;11328;53.928;18.522;2023-03-01T10:36:08;26.98;;;16.63;;
22320;SDS011;11328;53.928;18.522;2023-03-01T10:38:54;27.55;;;17.23;;
22320;SDS011;11328;53.928;18.522;2023-03-01T10:41:24;29.27;;;16.70;;
22320;SDS011;11328;53.928;18.522;2023-03-01T10:43:54;28.83;;;15.30;;
22320;SDS011;11328;53.928;18.522;2023-03-01T10:46:28;25.80;;;15.68;;
22320;SDS011;11328;53.928;18.522;2023-03-01T10:49:21;24.85;;;15.20;;
22320;SDS011;11328;53.928;18.522;2023-03-01T10:51:50;23.08;;;14.95;;
22320;SDS011;11328;53.928;18.522;2023-03-01T10:56:48;24.67;;;15.00;;
22320;SDS011;11328;53.928;18.522;2023-03-01T11:02:04;25.58;;;15.40;;
22320;SDS011;11328;53.928;18.522;2023-03-01T11:05:01;21.40;;;13.25;;
22320;SDS011;11328;53.928;18.522;2023-03-01T11:16:01;20.73;;;13.00;;
22320;SDS011;11328;53.928;18.522;2023-03-01T11:18:38;22.15;;;12.85;;
22320;SDS011;11328;53.928;18.522;2023-03-01T11:21:14;22.02;;;12.40;;
22320;SDS011;11328;53.928;18.522;2023-03-01T11:23:43;21.67;;;13.18;;
22320;SDS011;11328;53.928;18.522;2023-03-01T11:26:13;19.27;;;12.07;;
22320;SDS011;11328;53.928;18.522;2023-03-01T11:28:44;22.25;;;13.45;;
22320;SDS011;11328;53.928;18.522;2023-03-01T11:31:22;21.95;;;13.25;;
22320;SDS011;11328;53.928;18.522;2023-03-01T11:34:09;20.73;;;12.68;;
22320;SDS011;11328;53.928;18.522;2023-03-01T11:36:48;22.10;;;13.40;;
22320;SDS011;11328;53.928;18.522;2023-03-01T11:39:31;25.25;;;13.82;;
22320;SDS011;11328;53.928;18.522;2023-03-01T11:42:38;22.40;;;13.43;;
22320;SDS011;11328;53.928;18.522;2023-03-01T11:45:16;23.15;;;13.90;;
22320;SDS011;11328;53.928;18.522;2023-03-01T11:50:42;21.50;;;12.95;;
22320;SDS011;11328;53.928;18.522;2023-03-01T11:53:21;21.60;;;12.93;;
22320;SDS011;11328;53.928;18.522;2023-03-01T11:59:12;23.73;;;14.57;;
22320;SDS011;11328;53.928;18.522;2023-03-01T12:19:22;55.67;;;34.75;;
22320;SDS011;11328;53.928;18.522;2023-03-01T12:25:16;19.65;;;11.60;;
22320;SDS011;11328;53.928;18.522;2023-03-01T12:33:57;20.70;;;13.02;;
22320;SDS011;11328;53.928;18.522;2023-03-01T12:43:12;21.63;;;12.77;;
22320;SDS011;11328;53.928;18.522;2023-03-01T12:49:20;20.85;;;12.50;;
22320;SDS011;11328;53.928;18.522;2023-03-01T12:51:59;21.60;;;11.90;;
22320;SDS011;11328;53.928;18.522;2023-03-01T12:54:35;22.45;;;12.80;;
22320;SDS011;11328;53.928;18.522;2023-03-01T13:05:26;24.45;;;12.55;;
22320;SDS011;11328;53.928;18.522;2023-03-01T13:08:48;21.33;;;12.63;;
22320;SDS011;11328;53.928;18.522;2023-03-01T13:11:30;19.98;;;12.15;;
22320;SDS011;11328;53.928;18.522;2023-03-01T13:17:01;21.67;;;13.20;;
22320;SDS011;11328;53.928;18.522;2023-03-01T13:19:28;20.83;;;13.00;;
22320;SDS011;11328;53.928;18.522;2023-03-01T13:21:57;21.75;;;13.30;;
22320;SDS011;11328;53.928;18.522;2023-03-01T13:24:26;24.50;;;13.55;;
22320;SDS011;11328;53.928;18.522;2023-03-01T13:29:51;23.77;;;14.05;;
22320;SDS011;11328;53.928;18.522;2023-03-01T13:32:30;24.00;;;14.27;;
22320;SDS011;11328;53.928;18.522;2023-03-01T13:37:46;24.55;;;15.05;;
22320;SDS011;11328;53.928;18.522;2023-03-01T13:42:45;23.73;;;13.88;;
22320;SDS011;11328;53.928;18.522;2023-03-01T13:48:11;23.05;;;14.43;;
22320;SDS011;11328;53.928;18.522;2023-03-01T13:50:50;25.30;;;15.48;;
22320;SDS011;11328;53.928;18.522;2023-03-01T13:53:25;21.90;;;14.75;;
22320;SDS011;11328;53.928;18.522;2023-03-01T13:55:58;24.15;;;14.43;;
22320;SDS011;11328;53.928;18.522;2023-03-01T14:01:43;26.30;;;14.77;;
22320;SDS011;11328;53.928;18.522;2023-03-01T14:09:55;26.83;;;15.48;;
22320;SDS011;11328;53.928;18.522;2023-03-01T14:15:20;25.83;;;15.15;;
22320;SDS011;11328;53.928;18.522;2023-03-01T14:20:28;26.90;;;15.32;;
22320;SDS011;11328;53.928;18.522;2023-03-01T14:23:02;28.45;;;15.57;;
22320;SDS011;11328;53.928;18.522;2023-03-01T14:25:38;24.25;;;15.45;;
22320;SDS011;11328;53.928;18.522;2023-03-01T14:28:15;23.02;;;15.15;;
22320;SDS011;11328;53.928;18.522;2023-03-01T14:30:51;26.77;;;15.65;;
22320;SDS011;11328;53.928;18.522;2023-03-01T14:33:24;24.08;;;15.00;;
22320;SDS011;11328;53.928;18.522;2023-03-01T14:38:51;24.65;;;15.25;;
22320;SDS011;11328;53.928;18.522;2023-03-01T14:41:20;27.10;;;15.65;;
22320;SDS011;11328;53.928;18.522;2023-03-01T14:43:51;23.48;;;15.27;;
22320;SDS011;11328;53.928;18.522;2023-03-01T14:46:34;26.35;;;15.90;;
22320;SDS011;11328;53.928;18.522;2023-03-01T14:49:17;26.88;;;14.65;;
22320;SDS011;11328;53.928;18.522;2023-03-01T14:51:56;26.15;;;15.98;;
22320;SDS011;11328;53.928;18.522;2023-03-01T14:54:29;25.50;;;15.68;;
22320;SDS011;11328;53.928;18.522;2023-03-01T14:57:14;25.42;;;15.77;;
22320;SDS011;11328;53.928;18.522;2023-03-01T15:02:13;25.38;;;14.65;;
22320;SDS011;11328;53.928;18.522;2023-03-01T15:04:46;24.80;;;15.15;;
22320;SDS011;11328;53.928;18.522;2023-03-01T15:07:19;30.45;;;15.75;;
22320;SDS011;11328;53.928;18.522;2023-03-01T15:09:48;24.77;;;15.95;;
22320;SDS011;11328;53.928;18.522;2023-03-01T15:12:25;27.52;;;16.52;;
22320;SDS011;11328;53.928;18.522;2023-03-01T15:14:56;27.90;;;16.88;;
22320;SDS011;11328;53.928;18.522;2023-03-01T15:20:00;29.80;;;18.17;;
22320;SDS011;11328;53.928;18.522;2023-03-01T15:22:34;31.55;;;17.35;;
22320;SDS011;11328;53.928;18.522;2023-03-01T15:25:02;31.15;;;20.00;;
22320;SDS011;11328;53.928;18.522;2023-03-01T15:27:31;26.02;;;17.05;;
22320;SDS011;11328;53.928;18.522;2023-03-01T15:29:59;31.85;;;20.27;;
22320;SDS011;11328;53.928;18.522;2023-03-01T15:35:32;28.42;;;16.27;;
22320;SDS011;11328;53.928;18.522;2023-03-01T15:38:28;28.73;;;17.05;;
22320;SDS011;11328;53.928;18.522;2023-03-01T15:41:26;31.27;;;17.83;;
22320;SDS011;11328;53.928;18.522;2023-03-01T15:44:17;30.20;;;17.52;;
22320;SDS011;11328;53.928;18.522;2023-03-01T15:47:21;32.92;;;17.48;;
22320;SDS011;11328;53.928;18.522;2023-03-01T15:50:25;31.23;;;18.23;;
22320;SDS011;11328;53.928;18.522;2023-03-01T15:52:56;30.77;;;17.38;;
22320;SDS011;11328;53.928;18.522;2023-03-01T16:00:40;29.92;;;17.30;;
22320;SDS011;11328;53.928;18.522;2023-03-01T16:03:27;31.27;;;19.70;;
22320;SDS011;11328;53.928;18.522;2023-03-01T16:05:55;31.38;;;18.75;;
22320;SDS011;11328;53.928;18.522;2023-03-01T16:08:23;34.97;;;19.00;;
22320;SDS011;11328;53.928;18.522;2023-03-01T16:10:51;31.35;;;18.63;;
22320;SDS011;11328;53.928;18.522;2023-03-01T16:13:20;36.13;;;19.77;;
22320;SDS011;11328;53.928;18.522;2023-03-01T16:15:48;34.90;;;19.58;;
22320;SDS011;11328;53.928;18.522;2023-03-01T16:18:19;31.33;;;18.85;;
22320;SDS011;11328;53.928;18.522;2023-03-01T16:20:52;34.37;;;20.37;;
22320;SDS011;11328;53.928;18.522;2023-03-01T16:23:25;32.33;;;18.17;;
22320;SDS011;11328;53.928;18.522;2023-03-01T16:25:58;33.60;;;18.70;;
22320;SDS011;11328;53.928;18.522;2023-03-01T16:28:27;34.47;;;19.80;;
22320;SDS011;11328;53.928;18.522;2023-03-01T16:30:55;35.25;;;19.92;;
22320;SDS011;11328;53.928;18.522;2023-03-01T16:33:24;32.38;;;19.58;;
22320;SDS011;11328;53.928;18.522;2023-03-01T16:35:59;36.60;;;19.35;;
22320;SDS011;11328;53.928;18.522;2023-03-01T16:38:36;31.63;;;18.23;;
22320;SDS011;11328;53.928;18.522;2023-03-01T16:41:04;33.97;;;19.98;;
22320;SDS011;11328;53.928;18.522;2023-03-01T16:43:32;36.22;;;20.02;;
22320;SDS011;11328;53.928;18.522;2023-03-01T16:46:01;32.25;;;19.67;;
22320;SDS011;11328;53.928;18.522;2023-03-01T16:48:40;36.78;;;20.05;;
22320;SDS011;11328;53.928;18.522;2023-03-01T16:51:08;35.38;;;19.75;;
22320;SDS011;11328;53.928;18.522;2023-03-01T16:53:37;37.47;;;20.15;;
22320;SDS011;11328;53.928;18.522;2023-03-01T16:56:06;38.80;;;20.55;;
22320;SDS011;11328;53.928;18.522;2023-03-01T16:58:36;36.83;;;20.40;;
22320;SDS011;11328;53.928;18.522;2023-03-01T17:01:08;35.25;;;20.88;;
22320;SDS011;11328;53.928;18.522;2023-03-01T17:03:40;37.80;;;22.65;;
22320;SDS011;11328;53.928;18.522;2023-03-01T17:06:09;43.75;;;25.20;;
22320;SDS011;11328;53.928;18.522;2023-03-01T17:08:43;56.47;;;32.88;;
22320;SDS011;11328;53.928;18.522;2023-03-01T17:11:14;53.47;;;33.55;;
22320;SDS011;11328;53.928;18.522;2023-03-01T17:13:44;58.95;;;33.75;;
22320;SDS011;11328;53.928;18.522;2023-03-01T17:16:12;57.42;;;34.90;;